createdAt,value
2019-02-17T00:01:25.966Z,17.30
2019-02-17T00:03:53.280Z,28.77
2019-02-17T00:06:20.857Z,13.33
2019-02-17T00:08:48.711Z,10.37
2019-02-17T00:11:16.278Z,12.50
2019-02-17T00:13:43.568Z,14.20
2019-02-17T00:16:10.978Z,11.73
2019-02-17T00:18:38.551Z,13.90
2019-02-17T00:21:05.874Z,14.93
2019-02-17T00:23:33.508Z,14.70
2019-02-17T00:26:00.842Z,12.50
2019-02-17T00:28:28.583Z,11.10
2019-02-17T00:30:56.266Z,14.87
2019-02-17T00:33:23.568Z,16.70
2019-02-17T00:35:51.510Z,24.33
2019-02-17T00:38:19.198Z,24.10
2019-02-17T00:40:46.689Z,17.70
2019-02-17T00:43:14.044Z,20.10
2019-02-17T00:45:41.763Z,12.40
2019-02-17T00:48:09.814Z,17.80
2019-02-17T00:50:37.129Z,18.37
2019-02-17T00:53:04.435Z,16.80
2019-02-17T00:55:32.043Z,12.20
2019-02-17T00:57:59.425Z,22.23
2019-02-17T01:00:26.701Z,14.23
2019-02-17T01:02:54.027Z,13.87
2019-02-17T01:05:21.343Z,10.33
2019-02-17T01:07:48.864Z,11.53
2019-02-17T01:10:16.539Z,29.27
2019-02-17T01:12:44.570Z,16.57
2019-02-17T01:15:11.987Z,18.57
2019-02-17T01:17:39.307Z,13.83
2019-02-17T01:20:07.039Z,12.33
2019-02-17T01:22:34.603Z,12.87
2019-02-17T01:25:01.915Z,15.87
2019-02-17T01:27:29.203Z,16.90
2019-02-17T01:29:56.679Z,14.63
2019-02-17T01:32:24.297Z,16.23
2019-02-17T01:34:51.663Z,14.67
2019-02-17T01:37:18.980Z,27.63
2019-02-17T01:39:51.718Z,16.90
2019-02-17T01:42:19.391Z,15.07
2019-02-17T01:44:47.006Z,18.60
2019-02-17T01:47:14.671Z,25.80
2019-02-17T01:49:42.006Z,15.73
2019-02-17T01:52:09.291Z,13.60
2019-02-17T01:54:36.615Z,14.40
2019-02-17T01:57:04.147Z,17.17
2019-02-17T01:59:31.559Z,21.87
2019-02-17T02:01:59.011Z,13.83
2019-02-17T02:04:26.325Z,26.53
2019-02-17T02:06:54.011Z,19.83
2019-02-17T02:09:21.467Z,13.97
2019-02-17T02:11:48.758Z,20.00
2019-02-17T02:14:16.433Z,20.40
2019-02-17T02:16:44.143Z,31.07
2019-02-17T02:19:11.479Z,18.30
2019-02-17T02:21:41.086Z,23.90
2019-02-17T02:24:08.730Z,15.70
2019-02-17T02:26:36.051Z,18.43
2019-02-17T02:29:03.612Z,21.27
2019-02-17T02:31:30.931Z,16.63
2019-02-17T02:33:58.227Z,18.17
2019-02-17T02:36:25.645Z,19.90
2019-02-17T02:38:52.923Z,18.80
2019-02-17T02:41:20.500Z,21.60
2019-02-17T02:43:48.519Z,17.50
2019-02-17T02:46:15.954Z,26.30
2019-02-17T02:48:43.219Z,17.03
2019-02-17T02:51:10.537Z,17.27
2019-02-17T02:53:37.852Z,13.20
2019-02-17T02:56:05.620Z,13.53
2019-02-17T02:58:33.172Z,14.50
2019-02-17T03:01:00.637Z,10.37
2019-02-17T03:03:28.700Z,14.30
2019-02-17T03:06:08.682Z,12.53
2019-02-17T03:08:36.363Z,14.17
2019-02-17T03:16:55.414Z,12.07
2019-02-17T03:19:22.691Z,13.33
2019-02-17T03:21:50.346Z,14.93
2019-02-17T03:24:17.613Z,15.17
2019-02-17T03:26:45.287Z,12.93
2019-02-17T03:29:12.534Z,12.53
2019-02-17T03:31:39.844Z,13.40
2019-02-17T03:34:07.307Z,12.97
2019-02-17T03:36:34.603Z,14.20
2019-02-17T03:39:02.190Z,13.53
2019-02-17T03:41:29.588Z,12.90
2019-02-17T03:43:57.525Z,12.10
2019-02-17T03:46:25.190Z,14.83
2019-02-17T03:48:52.473Z,23.20
2019-02-17T03:51:19.751Z,21.63
2019-02-17T03:53:47.010Z,21.20
2019-02-17T03:56:14.358Z,25.03
2019-02-17T03:58:41.640Z,25.97
2019-02-17T04:01:08.940Z,24.87
2019-02-17T04:03:36.602Z,25.43
2019-02-17T04:06:03.936Z,24.23
2019-02-17T04:08:31.936Z,22.60
2019-02-17T04:10:59.353Z,26.23
2019-02-17T04:13:27.090Z,22.40
2019-02-17T04:15:54.413Z,25.53
2019-02-17T04:18:21.719Z,26.57
2019-02-17T04:20:49.100Z,31.97
2019-02-17T04:23:16.421Z,23.53
2019-02-17T04:25:44.032Z,23.87
2019-02-17T04:28:11.306Z,25.90
2019-02-17T04:30:38.956Z,26.77
2019-02-17T04:33:06.246Z,34.87
2019-02-17T04:35:33.844Z,26.80
2019-02-17T04:38:01.147Z,27.43
2019-02-17T04:40:28.778Z,29.33
2019-02-17T04:42:56.019Z,26.07
2019-02-17T04:45:23.303Z,23.87
2019-02-17T04:47:50.563Z,25.20
2019-02-17T04:50:18.208Z,23.67
2019-02-17T04:52:45.827Z,24.60
2019-02-17T04:55:13.138Z,24.03
2019-02-17T04:57:40.399Z,24.93
2019-02-17T05:00:07.802Z,25.73
2019-02-17T05:02:35.064Z,25.17
2019-02-17T05:05:02.387Z,28.33
2019-02-17T05:07:29.630Z,23.90
2019-02-17T05:09:57.352Z,26.87
2019-02-17T05:12:24.623Z,24.27
2019-02-17T05:14:51.963Z,29.63
2019-02-17T05:17:19.268Z,28.93
2019-02-17T05:19:46.564Z,24.73
2019-02-17T05:22:13.874Z,27.13
2019-02-17T05:24:41.472Z,25.53
2019-02-17T05:27:08.804Z,24.23
2019-02-17T05:29:36.042Z,25.03
2019-02-17T05:32:03.317Z,23.57
2019-02-17T05:34:30.595Z,26.13
2019-02-17T05:36:58.437Z,25.60
2019-02-17T05:39:25.707Z,26.93
2019-02-17T05:41:53.020Z,23.40
2019-02-17T05:44:20.354Z,28.93
2019-02-17T05:46:47.625Z,27.30
2019-02-17T05:49:15.237Z,26.03
2019-02-17T05:51:42.535Z,23.07
2019-02-17T05:54:09.840Z,26.13
2019-02-17T05:56:37.474Z,27.20
2019-02-17T05:59:04.714Z,24.60
2019-02-17T06:01:32.019Z,26.23
2019-02-17T06:03:59.639Z,27.83
2019-02-17T06:06:26.920Z,26.43
2019-02-17T06:08:54.568Z,27.17
2019-02-17T06:11:22.203Z,26.10
2019-02-17T06:13:49.490Z,26.07
2019-02-17T06:16:16.788Z,26.73
2019-02-17T06:18:44.381Z,27.70
2019-02-17T06:21:11.661Z,26.00
2019-02-17T06:23:39.694Z,28.27
2019-02-17T06:26:06.976Z,25.83
2019-02-17T06:28:34.498Z,30.30
2019-02-17T06:31:02.089Z,27.37
2019-02-17T06:33:29.386Z,29.40
2019-02-17T06:35:56.739Z,32.27
2019-02-17T06:38:24.393Z,28.43
2019-02-17T06:40:51.695Z,31.70
2019-02-17T06:43:19.442Z,29.70
2019-02-17T06:45:46.777Z,25.80
2019-02-17T06:48:14.148Z,26.30
2019-02-17T06:50:41.626Z,29.53
2019-02-17T06:53:08.937Z,27.13
2019-02-17T06:55:58.948Z,28.13
2019-02-17T06:58:26.323Z,26.30
2019-02-17T07:00:55.632Z,26.87
2019-02-17T07:03:23.667Z,27.63
2019-02-17T07:06:08.221Z,26.37
2019-02-17T07:08:35.826Z,26.43
2019-02-17T07:11:04.527Z,27.63
2019-02-17T07:13:32.798Z,29.90
2019-02-17T07:16:00.808Z,29.10
2019-02-17T07:18:28.699Z,28.60
2019-02-17T07:20:56.271Z,28.20
2019-02-17T07:23:24.418Z,24.70
2019-02-17T07:25:52.403Z,28.43
2019-02-17T07:28:20.324Z,29.03
2019-02-17T07:30:48.601Z,29.43
2019-02-17T07:33:16.586Z,27.53
2019-02-17T07:35:44.479Z,28.83
2019-02-17T07:38:12.182Z,30.30
2019-02-17T07:40:40.155Z,28.23
2019-02-17T07:43:07.784Z,25.67
2019-02-17T07:45:36.141Z,26.97
2019-02-17T07:48:04.295Z,25.93
2019-02-17T07:50:31.946Z,25.67
2019-02-17T07:53:01.010Z,27.20
2019-02-17T07:55:28.782Z,29.63
2019-02-17T07:57:58.443Z,24.87
2019-02-17T08:00:26.023Z,23.93
2019-02-17T08:02:53.878Z,25.30
2019-02-17T08:05:21.311Z,32.77
2019-02-17T08:07:49.004Z,28.90
2019-02-17T08:10:16.773Z,29.50
2019-02-17T08:12:44.473Z,27.70
2019-02-17T08:15:13.170Z,30.07
2019-02-17T08:17:41.004Z,26.13
2019-02-17T08:20:09.666Z,25.53
2019-02-17T08:22:37.613Z,30.93
2019-02-17T08:25:05.902Z,25.63
2019-02-17T08:27:34.143Z,26.67
2019-02-17T08:30:04.818Z,31.57
2019-02-17T08:32:32.435Z,26.17
2019-02-17T08:35:00.592Z,27.57
2019-02-17T08:37:28.178Z,30.53
2019-02-17T08:39:55.745Z,25.80
2019-02-17T08:42:24.031Z,25.17
2019-02-17T08:44:51.811Z,27.17
2019-02-17T08:47:19.398Z,28.93
2019-02-17T08:49:47.190Z,29.50
2019-02-17T08:52:14.739Z,29.57
2019-02-17T08:54:42.290Z,28.17
2019-02-17T08:57:09.741Z,28.20
2019-02-17T08:59:37.300Z,25.70
2019-02-17T09:02:06.245Z,22.90
2019-02-17T09:04:33.943Z,24.17
2019-02-17T09:07:01.514Z,25.00
2019-02-17T09:09:29.011Z,28.27
2019-02-17T09:11:56.754Z,27.97
2019-02-17T09:14:24.209Z,26.60
2019-02-17T09:16:52.795Z,26.10
2019-02-17T09:19:20.347Z,23.37
2019-02-17T09:21:47.938Z,24.57
2019-02-17T09:24:15.410Z,23.07
2019-02-17T09:26:42.824Z,22.20
2019-02-17T09:29:11.107Z,23.10
2019-02-17T09:31:38.525Z,22.43
2019-02-17T09:34:06.231Z,23.77
2019-02-17T09:36:33.787Z,23.23
2019-02-17T09:39:01.245Z,21.97
2019-02-17T09:41:28.784Z,20.70
2019-02-17T09:43:56.545Z,23.67
2019-02-17T09:46:23.980Z,24.77
2019-02-17T09:48:52.127Z,23.47
2019-02-17T09:51:19.612Z,21.50
2019-02-17T09:53:47.250Z,24.50
2019-02-17T09:56:14.866Z,24.47
2019-02-17T09:58:42.989Z,20.60
2019-02-17T10:01:12.393Z,23.63
2019-02-17T10:03:40.120Z,22.77
2019-02-17T10:06:07.996Z,19.00
2019-02-17T10:08:36.376Z,22.13
2019-02-17T10:11:04.509Z,21.37
2019-02-17T10:13:32.355Z,20.67
2019-02-17T10:16:01.081Z,25.43
2019-02-17T10:18:28.988Z,36.03
2019-02-17T10:20:57.768Z,21.40
2019-02-17T10:23:25.665Z,30.70
2019-02-17T10:25:53.600Z,24.13
2019-02-17T10:28:21.324Z,25.17
2019-02-17T10:30:50.009Z,30.30
2019-02-17T10:33:17.713Z,32.97
2019-02-17T10:35:45.458Z,27.10
2019-02-17T10:38:12.849Z,24.57
2019-02-17T10:40:40.192Z,23.30
2019-02-17T10:43:07.484Z,29.80
2019-02-17T10:45:35.570Z,39.40
2019-02-17T10:48:03.116Z,33.83
2019-02-17T10:50:30.411Z,20.97
2019-02-17T10:52:57.775Z,30.17
2019-02-17T10:55:25.706Z,21.90
2019-02-17T10:57:53.241Z,36.33
2019-02-17T11:00:20.871Z,16.87
2019-02-17T11:02:48.206Z,29.83
2019-02-17T11:05:16.310Z,28.93
2019-02-17T11:07:43.968Z,23.77
2019-02-17T11:10:11.734Z,25.53
2019-02-17T11:12:48.114Z,26.10
2019-02-17T11:15:16.049Z,19.23
2019-02-17T11:17:45.369Z,23.40
2019-02-17T11:20:12.913Z,21.83
2019-02-17T11:22:40.220Z,29.37
2019-02-17T11:25:07.950Z,41.00
2019-02-17T11:27:35.280Z,18.00
2019-02-17T11:30:02.782Z,21.13
2019-02-17T11:32:32.217Z,16.27
2019-02-17T11:34:59.697Z,18.57
2019-02-17T11:37:26.989Z,18.50
2019-02-17T11:39:54.332Z,17.37
2019-02-17T11:42:21.639Z,22.33
2019-02-17T11:44:49.229Z,31.77
2019-02-17T11:47:16.893Z,21.83
2019-02-17T11:49:44.757Z,17.30
2019-02-17T11:52:12.202Z,17.40
2019-02-17T11:54:39.564Z,16.23
2019-02-17T11:57:07.232Z,17.73
2019-02-17T11:59:35.178Z,22.23
2019-02-17T12:02:03.248Z,14.33
2019-02-17T12:04:31.221Z,14.23
2019-02-17T12:07:00.284Z,15.37
2019-02-17T12:09:28.312Z,15.67
2019-02-17T12:11:55.894Z,27.87
2019-02-17T12:14:31.509Z,18.40
2019-02-17T12:17:00.461Z,13.93
2019-02-17T12:19:28.063Z,13.90
2019-02-17T12:22:03.385Z,14.07
2019-02-17T12:24:53.312Z,18.00
2019-02-17T12:27:39.787Z,15.77
2019-02-17T12:30:11.572Z,14.47
2019-02-17T12:32:44.302Z,15.37
2019-02-17T12:35:29.464Z,14.83
2019-02-17T12:38:10.887Z,12.40
2019-02-17T12:40:43.990Z,12.80
2019-02-17T12:43:21.168Z,12.53
2019-02-17T12:45:58.439Z,11.43
2019-02-17T12:48:29.563Z,10.77
2019-02-17T12:51:03.795Z,15.40
2019-02-17T12:53:34.480Z,13.17
2019-02-17T12:56:09.423Z,12.70
2019-02-17T12:58:45.694Z,12.87
2019-02-17T13:01:21.538Z,12.40
2019-02-17T13:03:55.107Z,11.40
2019-02-17T13:06:30.426Z,12.27
2019-02-17T13:09:14.916Z,15.20
2019-02-17T13:11:48.325Z,12.20
2019-02-17T13:14:22.748Z,11.93
2019-02-17T13:16:57.442Z,11.57
2019-02-17T13:19:34.642Z,11.48
2019-02-17T13:22:15.605Z,12.60
2019-02-17T13:24:44.565Z,10.65
2019-02-17T13:27:22.354Z,13.05
2019-02-17T13:29:52.905Z,13.48
2019-02-17T13:32:28.624Z,10.55
2019-02-17T13:35:07.223Z,10.40
2019-02-17T13:37:50.586Z,11.23
2019-02-17T13:40:34.993Z,9.73
2019-02-17T13:43:16.639Z,9.50
2019-02-17T13:45:51.841Z,11.30
2019-02-17T13:48:28.400Z,8.30
2019-02-17T13:50:58.957Z,8.80
2019-02-17T13:53:29.627Z,8.23
2019-02-17T13:55:58.858Z,10.03
2019-02-17T13:58:27.649Z,9.53
2019-02-17T14:00:59.330Z,10.17
2019-02-17T14:03:48.225Z,9.90
2019-02-17T14:06:18.922Z,9.67
2019-02-17T14:08:55.241Z,9.37
2019-02-17T14:11:26.558Z,9.60
2019-02-17T14:14:15.133Z,8.80
2019-02-17T14:16:49.204Z,9.03
2019-02-17T14:22:50.940Z,10.47
2019-02-17T14:25:37.056Z,12.50
2019-02-17T14:28:43.757Z,8.23
2019-02-17T14:31:41.905Z,8.07
2019-02-17T14:34:27.712Z,13.17
2019-02-17T14:37:01.339Z,12.10
2019-02-17T14:39:30.792Z,8.90
2019-02-17T14:42:24.060Z,9.97
2019-02-17T14:45:28.587Z,9.73
2019-02-17T14:48:16.102Z,9.13
2019-02-17T14:51:15.261Z,8.60
2019-02-17T14:54:09.271Z,8.80
2019-02-17T14:56:45.064Z,9.03
2019-02-17T15:00:15.318Z,8.70
2019-02-17T15:03:00.873Z,8.67
2019-02-17T15:05:54.447Z,8.07
2019-02-17T15:08:38.206Z,10.30
2019-02-17T15:11:27.792Z,11.73
2019-02-17T15:13:55.725Z,8.83
2019-02-17T15:16:32.049Z,9.57
2019-02-17T15:19:02.474Z,8.93
2019-02-17T15:21:42.635Z,7.63
2019-02-17T15:24:15.055Z,8.90
2019-02-17T15:27:03.325Z,10.60
2019-02-17T15:29:38.909Z,9.73
2019-02-17T15:32:06.966Z,9.40
2019-02-17T15:34:46.423Z,9.93
2019-02-17T15:37:32.624Z,10.03
2019-02-17T15:40:01.391Z,10.77
2019-02-17T15:42:36.545Z,9.83
2019-02-17T15:45:15.201Z,10.13
2019-02-17T15:47:46.588Z,7.60
2019-02-17T15:50:15.362Z,10.40
2019-02-17T15:52:44.695Z,10.37
2019-02-17T15:55:21.341Z,9.40
2019-02-17T15:58:01.459Z,8.80
2019-02-17T16:00:38.831Z,9.20
2019-02-17T16:03:29.967Z,11.37
2019-02-17T16:06:23.880Z,10.40
2019-02-17T16:09:01.087Z,9.67
2019-02-17T16:11:41.914Z,11.80
2019-02-17T16:14:18.518Z,10.67
2019-02-17T16:16:53.497Z,10.90
2019-02-17T16:19:35.360Z,9.90
2019-02-17T16:22:07.954Z,11.00
2019-02-17T16:24:48.422Z,11.97
2019-02-17T16:27:28.030Z,12.97
2019-02-17T16:30:10.761Z,10.85
2019-02-17T16:32:41.172Z,11.30
2019-02-17T16:35:45.484Z,12.95
2019-02-17T16:38:38.238Z,11.00
2019-02-17T16:41:25.323Z,10.75
2019-02-17T16:43:53.893Z,11.20
2019-02-17T16:46:25.740Z,11.80
2019-02-17T16:49:07.277Z,11.08
2019-02-17T16:51:41.664Z,11.55
2019-02-17T16:54:12.404Z,11.87
2019-02-17T16:56:46.706Z,10.53
2019-02-17T16:59:32.088Z,11.48
2019-02-17T17:02:19.107Z,14.55
2019-02-17T17:05:17.982Z,11.88
2019-02-17T17:08:02.117Z,13.33
2019-02-17T17:10:52.894Z,12.05
2019-02-17T17:14:21.720Z,13.20
2019-02-17T17:16:53.851Z,12.35
2019-02-17T17:19:29.226Z,11.13
2019-02-17T17:22:01.735Z,11.48
2019-02-17T17:24:41.481Z,13.40
2019-02-17T17:27:13.341Z,13.20
2019-02-17T17:29:50.503Z,12.47
2019-02-17T17:32:28.435Z,13.32
2019-02-17T17:34:59.585Z,12.78
2019-02-17T17:37:30.021Z,12.58
2019-02-17T17:40:00.948Z,12.82
2019-02-17T17:42:35.425Z,11.47
2019-02-17T17:45:05.040Z,13.75
2019-02-17T17:47:34.541Z,13.43
2019-02-17T17:50:05.954Z,13.30
2019-02-17T17:52:35.437Z,13.30
2019-02-17T17:55:03.563Z,14.53
2019-02-17T17:57:34.571Z,15.43
2019-02-17T18:00:03.279Z,15.03
2019-02-17T18:02:31.030Z,15.03
2019-02-17T18:05:08.440Z,15.20
2019-02-17T18:07:29.567Z,16.53
2019-02-17T18:09:58.149Z,12.10
2019-02-17T18:12:26.229Z,12.43
2019-02-17T18:14:54.408Z,12.13
2019-02-17T18:17:22.547Z,13.73
2019-02-17T18:19:52.296Z,11.40
2019-02-17T18:22:20.433Z,11.27
2019-02-17T18:24:51.301Z,12.43
2019-02-17T18:27:19.105Z,13.03
2019-02-17T18:29:47.391Z,14.00
2019-02-17T18:32:16.014Z,13.13
2019-02-17T18:34:47.365Z,12.47
2019-02-17T18:37:15.063Z,13.23
2019-02-17T18:39:43.098Z,14.27
2019-02-17T18:42:10.794Z,13.80
2019-02-17T18:44:38.497Z,13.07
2019-02-17T18:47:07.128Z,12.77
2019-02-17T18:49:34.954Z,15.10
2019-02-17T18:52:02.716Z,12.93
2019-02-17T18:54:32.866Z,13.70
2019-02-17T18:57:08.032Z,13.47
2019-02-17T18:59:30.941Z,15.73
2019-02-17T19:01:59.611Z,16.80
2019-02-17T19:04:27.830Z,14.63
2019-02-17T19:06:55.769Z,15.13
2019-02-17T19:09:24.104Z,14.00
2019-02-17T19:11:52.936Z,13.27
2019-02-17T19:14:20.654Z,15.37
2019-02-17T19:16:48.521Z,13.83
2019-02-17T19:19:16.724Z,16.27
2019-02-17T19:21:44.324Z,17.17
2019-02-17T19:24:12.614Z,13.80
2019-02-17T19:26:40.173Z,14.03
2019-02-17T19:29:07.840Z,15.17
2019-02-17T19:31:35.922Z,14.37
2019-02-17T19:34:07.702Z,16.07
2019-02-17T19:36:35.254Z,16.57
2019-02-17T19:39:04.940Z,16.37
2019-02-17T19:41:33.230Z,17.83
2019-02-17T19:44:01.266Z,19.90
2019-02-17T19:46:29.268Z,17.30
2019-02-17T19:49:01.639Z,18.57
2019-02-17T19:51:29.733Z,18.13
2019-02-17T19:53:58.088Z,15.93
2019-02-17T19:56:26.030Z,15.47
2019-02-17T19:58:57.136Z,15.37
2019-02-17T20:01:28.071Z,17.03
2019-02-17T20:04:05.966Z,15.30
2019-02-17T20:06:33.999Z,16.10
2019-02-17T20:09:02.028Z,17.77
2019-02-17T20:11:30.753Z,17.97
2019-02-17T20:13:58.927Z,16.03
2019-02-17T20:16:29.031Z,17.60
2019-02-17T20:18:59.911Z,19.73
2019-02-17T20:21:30.570Z,16.13
2019-02-17T20:23:59.122Z,21.07
2019-02-17T20:26:27.296Z,16.57
2019-02-17T20:28:59.288Z,16.57
2019-02-17T20:31:27.738Z,16.50
2019-02-17T20:33:55.706Z,16.33
2019-02-17T20:36:23.754Z,17.00
2019-02-17T20:38:51.646Z,18.37
2019-02-17T20:41:19.345Z,18.17
2019-02-17T20:43:46.996Z,17.80
2019-02-17T20:46:15.066Z,15.97
2019-02-17T20:48:48.756Z,19.13
2019-02-17T20:51:17.110Z,18.10
2019-02-17T20:53:46.519Z,16.77
2019-02-17T20:56:15.719Z,19.23
2019-02-17T20:58:43.582Z,17.00
2019-02-17T21:01:11.942Z,17.60
2019-02-17T21:03:39.571Z,20.43
2019-02-17T21:06:12.691Z,16.80
2019-02-17T21:08:37.008Z,18.67
2019-02-17T21:11:07.085Z,18.53
2019-02-17T21:13:35.755Z,27.13
2019-02-17T21:16:04.552Z,17.93
2019-02-17T21:18:32.177Z,18.67
2019-02-17T21:21:00.644Z,16.13
2019-02-17T21:23:29.136Z,18.10
2019-02-17T21:25:56.783Z,16.90
2019-02-17T21:28:24.405Z,15.83
2019-02-17T21:30:57.827Z,16.07
2019-02-17T21:33:28.355Z,16.90
2019-02-17T21:35:56.148Z,17.50
2019-02-17T21:38:30.490Z,17.33
2019-02-17T21:41:08.775Z,19.30
2019-02-17T21:43:30.923Z,15.83
2019-02-17T21:45:59.057Z,21.00
2019-02-17T21:48:26.930Z,17.13
2019-02-17T21:50:54.440Z,17.97
2019-02-17T21:53:22.304Z,16.60
2019-02-17T21:55:50.004Z,17.87
2019-02-17T21:58:18.823Z,17.47
2019-02-17T22:00:46.404Z,16.53
2019-02-17T22:03:14.065Z,16.10
2019-02-17T22:05:41.969Z,15.33
2019-02-17T22:08:09.954Z,15.20
2019-02-17T22:10:38.391Z,16.33
2019-02-17T22:13:11.086Z,16.80
2019-02-17T22:15:42.357Z,15.27
2019-02-17T22:18:09.954Z,15.80
2019-02-17T22:20:37.576Z,18.50
2019-02-17T22:23:06.061Z,17.83
2019-02-17T22:25:37.499Z,17.17
2019-02-17T22:28:06.002Z,16.40
2019-02-17T22:30:34.626Z,15.27
2019-02-17T22:33:02.599Z,20.53
2019-02-17T22:35:30.175Z,15.20
2019-02-17T22:37:58.189Z,17.20
2019-02-17T22:40:26.509Z,16.63
2019-02-17T22:42:54.899Z,17.03
2019-02-17T22:45:22.811Z,17.23
2019-02-17T22:47:50.552Z,16.50
2019-02-17T22:50:18.800Z,15.17
2019-02-17T22:52:46.973Z,15.93
2019-02-17T22:55:17.835Z,15.70
2019-02-17T22:57:46.003Z,16.57
2019-02-17T23:00:36.941Z,16.77
2019-02-17T23:03:05.187Z,17.20
2019-02-17T23:05:33.525Z,14.50
2019-02-17T23:08:01.461Z,16.23
2019-02-17T23:10:29.448Z,19.03
2019-02-17T23:12:57.277Z,18.00
2019-02-17T23:15:25.503Z,14.03
2019-02-17T23:17:55.220Z,12.83
2019-02-17T23:20:25.919Z,14.37
2019-02-17T23:22:56.902Z,17.20
2019-02-17T23:25:24.906Z,12.83
2019-02-17T23:27:53.399Z,16.27
2019-02-17T23:30:21.523Z,15.40
2019-02-17T23:32:50.061Z,15.60
2019-02-17T23:35:18.108Z,14.37
2019-02-17T23:37:46.831Z,15.93
2019-02-17T23:40:14.841Z,20.80
2019-02-17T23:42:42.708Z,17.87
2019-02-17T23:45:10.611Z,13.47
2019-02-17T23:47:38.719Z,16.33
2019-02-17T23:50:08.891Z,15.40
2019-02-17T23:52:37.229Z,18.03
2019-02-17T23:55:05.767Z,16.07
2019-02-17T23:57:33.845Z,18.30
